createdAt,value
2023-05-12T00:00:16.632Z,86.23
2023-05-12T00:02:43.618Z,85.65
2023-05-12T00:05:10.613Z,86.01
2023-05-12T00:07:37.669Z,85.50
2023-05-12T00:10:04.952Z,86.47
2023-05-12T00:12:32.468Z,86.10
2023-05-12T00:14:59.301Z,85.58
2023-05-12T00:17:28.102Z,86.51
2023-05-12T00:19:55.135Z,86.27
2023-05-12T00:22:22.097Z,86.63
2023-05-12T00:24:49.024Z,84.82
2023-05-12T00:27:15.996Z,85.41
2023-05-12T00:29:43.012Z,84.46
2023-05-12T00:32:09.869Z,84.22
2023-05-12T00:34:37.080Z,85.14
2023-05-12T00:37:04.191Z,84.76
2023-05-12T00:39:38.486Z,84.43
2023-05-12T00:42:05.774Z,83.88
2023-05-12T00:44:32.797Z,84.57
2023-05-12T00:47:00.221Z,83.79
2023-05-12T00:49:28.052Z,83.68
2023-05-12T00:51:56.200Z,82.07
2023-05-12T00:54:23.437Z,81.90
2023-05-12T00:56:50.238Z,80.87
2023-05-12T00:59:17.082Z,80.08
2023-05-12T01:01:44.650Z,78.62
2023-05-12T01:04:11.727Z,78.50
2023-05-12T01:06:44.313Z,78.30
2023-05-12T01:09:11.797Z,77.22
2023-05-12T01:11:38.679Z,76.60
2023-05-12T01:14:06.200Z,75.78
2023-05-12T01:16:41.498Z,75.38
2023-05-12T01:19:15.363Z,75.48
2023-05-12T01:21:42.236Z,75.52
2023-05-12T01:24:10.725Z,74.37
2023-05-12T01:26:38.056Z,74.42
2023-05-12T01:29:06.400Z,74.31
2023-05-12T01:31:33.740Z,74.68
2023-05-12T01:34:01.014Z,73.54
2023-05-12T01:36:27.944Z,72.87
2023-05-12T01:38:55.703Z,73.00
2023-05-12T01:41:22.772Z,72.48
2023-05-12T01:43:52.214Z,72.09
2023-05-12T01:46:19.078Z,72.30
2023-05-12T01:48:45.952Z,71.49
2023-05-12T01:51:13.105Z,70.86
2023-05-12T01:53:40.169Z,71.55
2023-05-12T01:56:07.167Z,70.55
2023-05-12T01:58:34.420Z,69.85
2023-05-12T02:01:01.283Z,69.65
2023-05-12T02:03:28.330Z,69.76
2023-05-12T02:05:55.218Z,69.50
2023-05-12T02:08:22.024Z,69.56
2023-05-12T02:10:48.826Z,69.96
2023-05-12T02:13:15.788Z,69.53
2023-05-12T02:15:42.873Z,69.88
2023-05-12T02:18:09.745Z,69.92
2023-05-12T02:20:36.818Z,70.50
2023-05-12T02:23:03.621Z,70.47
2023-05-12T02:25:30.408Z,70.21
2023-05-12T02:27:57.299Z,69.73
2023-05-12T02:30:24.188Z,69.69
2023-05-12T02:32:51.201Z,69.77
2023-05-12T02:35:18.278Z,70.43
2023-05-12T02:37:45.183Z,70.52
2023-05-12T02:40:12.534Z,70.30
2023-05-12T02:42:40.511Z,70.34
2023-05-12T02:45:08.185Z,70.09
2023-05-12T02:47:35.103Z,69.49
2023-05-12T02:50:02.545Z,69.64
2023-05-12T02:52:29.460Z,70.59
2023-05-12T02:54:57.198Z,70.80
2023-05-12T02:57:24.230Z,70.39
2023-05-12T02:59:51.217Z,70.05
2023-05-12T03:02:18.198Z,68.91
2023-05-12T03:04:45.381Z,69.33
2023-05-12T03:07:12.403Z,69.70
2023-05-12T03:09:39.360Z,69.11
2023-05-12T03:12:16.130Z,69.58
2023-05-12T03:14:43.030Z,69.84
2023-05-12T03:17:09.833Z,69.59
2023-05-12T03:19:37.797Z,69.01
2023-05-12T03:22:07.474Z,70.08
2023-05-12T03:24:34.955Z,69.28
2023-05-12T03:27:01.895Z,69.58
2023-05-12T03:29:28.942Z,70.06
2023-05-12T03:31:55.860Z,70.07
2023-05-12T03:34:23.251Z,69.46
2023-05-12T03:36:50.272Z,70.32
2023-05-12T03:39:17.253Z,69.41
2023-05-12T03:41:44.138Z,69.86
2023-05-12T03:44:12.493Z,69.02
2023-05-12T03:46:39.618Z,69.40
2023-05-12T03:49:06.771Z,69.03
2023-05-12T03:51:33.650Z,68.93
2023-05-12T03:54:00.609Z,69.57
2023-05-12T03:56:28.824Z,69.37
2023-05-12T03:58:55.766Z,68.97
2023-05-12T04:01:22.771Z,68.80
2023-05-12T04:03:49.769Z,69.30
2023-05-12T04:06:16.847Z,68.35
2023-05-12T04:08:43.751Z,69.20
2023-05-12T04:11:10.899Z,69.53
2023-05-12T04:13:37.960Z,69.74
2023-05-12T04:16:05.528Z,69.52
2023-05-12T04:18:34.924Z,69.10
2023-05-12T04:21:02.010Z,69.64
2023-05-12T04:23:29.768Z,68.83
2023-05-12T04:25:57.084Z,68.73
2023-05-12T04:28:24.102Z,68.25
2023-05-12T04:30:51.018Z,68.23
2023-05-12T04:33:17.917Z,68.17
2023-05-12T04:35:44.848Z,67.97
2023-05-12T04:38:11.805Z,67.96
2023-05-12T04:40:38.714Z,68.80
2023-05-12T04:43:05.662Z,67.66
2023-05-12T04:45:32.471Z,67.73
2023-05-12T04:47:59.515Z,67.18
2023-05-12T04:50:27.065Z,67.12
2023-05-12T04:52:53.794Z,67.11
2023-05-12T04:55:21.174Z,67.83
2023-05-12T04:57:48.304Z,67.43
2023-05-12T05:00:15.713Z,67.33
2023-05-12T05:02:42.725Z,67.12
2023-05-12T05:05:10.090Z,66.38
2023-05-12T05:07:37.410Z,66.47
2023-05-12T05:10:04.668Z,66.48
2023-05-12T05:12:31.542Z,67.09
2023-05-12T05:14:58.464Z,65.72
2023-05-12T05:17:25.442Z,66.04
2023-05-12T05:19:58.385Z,66.07
2023-05-12T05:22:26.507Z,65.57
2023-05-12T05:24:53.256Z,65.31
2023-05-12T05:27:20.346Z,65.06
2023-05-12T05:29:47.552Z,65.14
2023-05-12T05:32:14.405Z,65.10
2023-05-12T05:34:41.424Z,65.00
2023-05-12T05:37:08.922Z,64.59
2023-05-12T05:39:35.832Z,64.66
2023-05-12T05:42:02.694Z,63.63
2023-05-12T05:44:29.576Z,63.55
2023-05-12T05:46:56.600Z,63.60
2023-05-12T05:49:23.504Z,62.29
2023-05-12T05:51:50.469Z,63.00
2023-05-12T05:54:17.368Z,61.86
2023-05-12T05:56:44.486Z,62.06
2023-05-12T05:59:11.612Z,61.61
2023-05-12T06:01:38.784Z,62.76
2023-05-12T06:04:06.118Z,62.44
2023-05-12T06:06:33.036Z,61.71
2023-05-12T06:09:00.010Z,60.97
2023-05-12T06:11:28.343Z,60.88
2023-05-12T06:13:55.223Z,61.01
2023-05-12T06:16:22.142Z,59.71
2023-05-12T06:18:49.296Z,59.38
2023-05-12T06:21:16.149Z,59.75
2023-05-12T06:23:43.405Z,59.30
2023-05-12T06:26:10.428Z,59.04
2023-05-12T06:28:37.381Z,58.50
2023-05-12T06:31:08.809Z,56.49
2023-05-12T06:33:35.935Z,56.22
2023-05-12T06:36:03.099Z,55.73
2023-05-12T06:38:30.069Z,55.07
2023-05-12T06:40:56.908Z,53.70
2023-05-12T06:43:24.045Z,52.35
2023-05-12T06:45:51.447Z,52.30
2023-05-12T06:48:18.495Z,51.68
2023-05-12T06:50:46.189Z,50.73
2023-05-12T06:53:13.154Z,49.84
2023-05-12T06:55:40.509Z,48.20
2023-05-12T06:58:07.588Z,47.88
2023-05-12T07:00:34.460Z,47.73
2023-05-12T07:03:01.424Z,45.13
2023-05-12T07:05:28.545Z,46.96
2023-05-12T07:07:55.697Z,45.65
2023-05-12T07:10:22.503Z,44.85
2023-05-12T07:12:49.515Z,44.79
2023-05-12T07:15:16.528Z,45.29
2023-05-12T07:17:43.609Z,44.41
2023-05-12T07:20:10.721Z,44.24
2023-05-12T07:22:39.026Z,44.48
2023-05-12T07:25:07.905Z,46.47
2023-05-12T07:27:35.384Z,45.64
2023-05-12T07:30:02.238Z,44.80
2023-05-12T07:32:29.164Z,45.19
2023-05-12T07:34:56.640Z,46.16
2023-05-12T07:37:24.373Z,46.89
2023-05-12T07:39:51.868Z,46.14
2023-05-12T07:42:18.797Z,47.26
2023-05-12T07:44:45.917Z,45.79
2023-05-12T07:47:12.919Z,44.34
2023-05-12T07:49:40.242Z,44.76
2023-05-12T07:52:07.281Z,43.46
2023-05-12T07:54:34.090Z,43.04
2023-05-12T07:57:01.169Z,41.32
2023-05-12T07:59:28.300Z,39.58
2023-05-12T08:01:55.532Z,39.49
2023-05-12T08:04:22.499Z,37.40
2023-05-12T08:06:49.604Z,37.75
2023-05-12T08:09:16.490Z,36.75
2023-05-12T08:11:47.061Z,35.27
2023-05-12T08:14:15.220Z,35.22
2023-05-12T08:16:45.665Z,34.96
2023-05-12T08:19:16.282Z,34.41
2023-05-12T08:21:43.530Z,33.96
2023-05-12T08:24:10.476Z,33.92
2023-05-12T08:26:37.338Z,33.87
2023-05-12T08:29:06.049Z,33.20
2023-05-12T08:31:33.241Z,31.54
2023-05-12T08:34:09.896Z,31.72
2023-05-12T08:36:39.150Z,29.94
2023-05-12T08:39:06.626Z,30.17
2023-05-12T08:42:07.397Z,27.44
2023-05-12T08:44:34.578Z,27.42
2023-05-12T08:47:04.268Z,25.86
2023-05-12T08:49:32.878Z,25.99
2023-05-12T08:52:01.737Z,22.55
2023-05-12T08:54:29.999Z,23.28
2023-05-12T08:59:27.796Z,23.69
2023-05-12T09:01:56.692Z,21.81
2023-05-12T09:04:23.645Z,21.85
2023-05-12T09:06:54.330Z,21.25
2023-05-12T09:09:23.770Z,23.27
2023-05-12T09:11:56.840Z,25.52
2023-05-12T09:14:26.121Z,24.93
2023-05-12T09:17:00.209Z,20.29
2023-05-12T09:19:27.510Z,18.55
2023-05-12T09:21:55.016Z,17.01
2023-05-12T09:24:33.671Z,14.38
2023-05-12T09:27:00.832Z,12.25
2023-05-12T09:29:31.925Z,11.19
2023-05-12T09:32:03.272Z,14.77
2023-05-12T09:34:41.601Z,13.68
2023-05-12T09:37:08.901Z,16.27
2023-05-12T09:39:36.971Z,16.82
2023-05-12T09:42:04.055Z,16.03
2023-05-12T09:44:32.347Z,16.11
2023-05-12T09:47:10.718Z,13.26
2023-05-12T09:49:38.540Z,12.73
2023-05-12T09:52:05.734Z,11.72
2023-05-12T09:54:34.645Z,12.40
2023-05-12T09:57:05.241Z,12.89
2023-05-12T09:59:34.565Z,13.56
2023-05-12T10:02:09.918Z,11.41
2023-05-12T10:04:47.862Z,12.68
2023-05-12T10:07:17.071Z,13.02
2023-05-12T10:09:48.645Z,14.46
2023-05-12T10:12:16.928Z,11.67
2023-05-12T10:14:44.320Z,13.25
2023-05-12T10:17:12.822Z,15.31
2023-05-12T10:19:42.300Z,13.07
2023-05-12T10:22:11.564Z,12.55
2023-05-12T10:24:40.860Z,12.64
2023-05-12T10:27:08.474Z,12.96
2023-05-12T10:29:36.007Z,12.53
2023-05-12T10:32:02.835Z,13.48
2023-05-12T10:34:38.060Z,11.44
2023-05-12T10:37:12.752Z,10.30
2023-05-12T10:39:50.754Z,10.31
2023-05-12T10:42:26.210Z,10.35
2023-05-12T10:44:54.892Z,10.63
2023-05-12T10:47:37.590Z,10.19
2023-05-12T10:50:05.015Z,9.98
2023-05-12T10:52:32.369Z,9.44
2023-05-12T10:55:39.275Z,9.07
2023-05-12T10:57:52.389Z,8.34
2023-05-12T11:00:24.936Z,7.72
2023-05-12T11:02:55.005Z,8.27
2023-05-12T11:05:34.787Z,10.19
2023-05-12T11:08:02.541Z,12.68
2023-05-12T11:10:31.219Z,13.41
2023-05-12T11:12:59.438Z,14.38
2023-05-12T11:15:27.707Z,13.27
2023-05-12T11:17:54.775Z,11.22
2023-05-12T11:20:27.577Z,14.50
2023-05-12T11:22:55.867Z,20.47
2023-05-12T11:25:23.000Z,21.32
2023-05-12T11:27:53.869Z,22.07
2023-05-12T11:30:21.620Z,23.97
2023-05-12T11:32:49.070Z,24.21
2023-05-12T11:35:18.794Z,23.18
2023-05-12T11:37:46.608Z,21.60
2023-05-12T11:40:18.704Z,16.70
2023-05-12T11:42:48.929Z,11.64
2023-05-12T11:45:22.998Z,11.04
2023-05-12T11:47:50.089Z,10.18
2023-05-12T11:50:24.878Z,10.71
2023-05-12T11:52:53.254Z,10.52
2023-05-12T11:55:25.668Z,11.94
2023-05-12T11:58:03.778Z,12.50
2023-05-12T12:00:35.610Z,14.35
2023-05-12T12:03:09.412Z,19.15
2023-05-12T12:05:36.724Z,20.54
2023-05-12T12:08:29.763Z,23.80
2023-05-12T12:11:01.353Z,20.21
2023-05-12T12:13:29.800Z,19.77
2023-05-12T12:15:56.728Z,19.89
2023-05-12T12:18:23.580Z,19.63
2023-05-12T12:20:50.613Z,21.37
2023-05-12T12:23:17.469Z,21.93
2023-05-12T12:25:44.356Z,22.54
2023-05-12T12:28:11.353Z,21.35
2023-05-12T12:30:38.805Z,23.61
2023-05-12T12:33:05.937Z,22.38
2023-05-12T12:35:32.922Z,20.99
2023-05-12T12:38:00.629Z,21.48
2023-05-12T12:40:27.888Z,21.54
2023-05-12T12:42:54.787Z,21.86
2023-05-12T12:45:22.107Z,22.63
2023-05-12T12:47:52.802Z,22.19
2023-05-12T12:50:20.008Z,21.76
2023-05-12T12:52:48.271Z,21.64
2023-05-12T12:55:15.495Z,24.44
2023-05-12T12:57:42.527Z,24.32
2023-05-12T13:00:10.276Z,23.53
2023-05-12T13:02:37.377Z,24.77
2023-05-12T13:05:06.192Z,26.33
2023-05-12T13:07:34.092Z,26.85
2023-05-12T13:10:01.073Z,24.03
2023-05-12T13:12:29.444Z,23.51
2023-05-12T13:14:56.347Z,27.70
2023-05-12T13:17:23.599Z,25.13
2023-05-12T13:19:50.647Z,23.25
2023-05-12T13:22:17.445Z,23.99
2023-05-12T13:24:44.677Z,24.24
2023-05-12T13:27:11.740Z,26.32
2023-05-12T13:29:38.907Z,25.10
2023-05-12T13:32:06.320Z,25.22
2023-05-12T13:34:33.542Z,27.83
2023-05-12T13:37:01.031Z,25.26
2023-05-12T13:39:28.055Z,23.76
2023-05-12T13:41:55.014Z,26.57
2023-05-12T13:44:21.842Z,26.05
2023-05-12T13:46:49.239Z,25.35
2023-05-12T13:49:16.749Z,27.34
2023-05-12T13:51:43.716Z,26.29
2023-05-12T13:54:10.759Z,29.24
2023-05-12T13:56:38.273Z,25.49
2023-05-12T13:59:09.618Z,25.18
2023-05-12T14:01:36.850Z,24.98
2023-05-12T14:04:04.149Z,24.18
2023-05-12T14:06:32.432Z,26.08
2023-05-12T14:08:59.588Z,26.70
2023-05-12T14:11:26.516Z,26.43
2023-05-12T14:13:53.787Z,27.18
2023-05-12T14:16:20.815Z,27.39
2023-05-12T14:18:48.298Z,25.97
2023-05-12T14:21:15.286Z,27.03
2023-05-12T14:23:42.114Z,27.94
2023-05-12T14:26:08.815Z,26.91
2023-05-12T14:28:35.978Z,26.90
2023-05-12T14:31:03.920Z,25.59
2023-05-12T14:33:31.662Z,25.78
2023-05-12T14:36:06.539Z,26.68
2023-05-12T14:38:34.845Z,25.02
2023-05-12T14:41:01.959Z,26.35
2023-05-12T14:43:28.890Z,25.82
2023-05-12T14:45:55.767Z,23.79
2023-05-12T14:48:23.719Z,24.50
2023-05-12T14:50:54.291Z,25.95
2023-05-12T14:53:21.493Z,26.94
2023-05-12T14:55:52.101Z,26.40
2023-05-12T14:58:19.546Z,25.46
2023-05-12T15:00:47.605Z,23.07
2023-05-12T15:03:15.007Z,23.68
2023-05-12T15:06:01.785Z,23.89
2023-05-12T15:08:29.472Z,25.40
2023-05-12T15:10:56.558Z,25.62
2023-05-12T15:13:23.425Z,26.17
2023-05-12T15:15:51.850Z,26.75
2023-05-12T15:18:21.126Z,26.83
2023-05-12T15:20:50.536Z,26.52
2023-05-12T15:23:17.531Z,28.18
2023-05-12T15:29:32.725Z,27.67
2023-05-12T15:31:59.668Z,29.37
2023-05-12T15:34:26.671Z,28.42
2023-05-12T15:36:53.714Z,29.59
2023-05-12T15:39:21.808Z,28.69
2023-05-12T15:41:50.780Z,28.88
2023-05-12T15:44:17.832Z,30.41
2023-05-12T15:46:45.070Z,30.48
2023-05-12T15:49:12.173Z,30.39
2023-05-12T15:51:39.190Z,30.51
2023-05-12T15:54:09.126Z,30.79
2023-05-12T15:56:36.562Z,31.95
2023-05-12T15:59:05.399Z,32.12
2023-05-12T16:01:32.531Z,31.02
2023-05-12T16:04:00.048Z,31.79
2023-05-12T16:06:27.502Z,31.57
2023-05-12T16:08:54.443Z,31.60
2023-05-12T16:11:21.521Z,30.33
2023-05-12T16:13:48.442Z,30.14
2023-05-12T16:16:15.560Z,31.83
2023-05-12T16:18:44.228Z,30.75
2023-05-12T16:21:13.073Z,31.60
2023-05-12T16:23:40.283Z,32.13
2023-05-12T16:26:07.192Z,32.17
2023-05-12T16:28:34.972Z,32.92
2023-05-12T16:31:03.647Z,32.03
2023-05-12T16:33:30.711Z,32.50
2023-05-12T16:36:00.791Z,32.17
2023-05-12T16:38:27.920Z,32.87
2023-05-12T16:40:54.880Z,33.01
2023-05-12T16:43:21.882Z,32.83
2023-05-12T16:45:59.317Z,34.06
2023-05-12T16:48:27.194Z,34.22
2023-05-12T16:51:07.889Z,34.18
2023-05-12T16:53:35.695Z,33.74
2023-05-12T16:56:02.760Z,34.61
2023-05-12T16:58:33.542Z,33.79
2023-05-12T17:01:01.457Z,35.29
2023-05-12T17:03:29.427Z,34.12
2023-05-12T17:05:56.565Z,34.62
2023-05-12T17:08:24.697Z,35.23
2023-05-12T17:10:52.006Z,34.18
2023-05-12T17:13:19.001Z,35.73
2023-05-12T17:15:46.173Z,35.18
2023-05-12T17:18:13.163Z,36.45
2023-05-12T17:20:40.049Z,35.87
2023-05-12T17:23:08.460Z,35.83
2023-05-12T17:25:36.927Z,36.80
2023-05-12T17:28:04.748Z,35.47
2023-05-12T17:30:32.450Z,37.11
2023-05-12T17:32:59.436Z,36.76
2023-05-12T17:35:26.352Z,37.73
2023-05-12T17:37:55.684Z,36.58
2023-05-12T17:40:23.251Z,37.02
2023-05-12T17:42:50.529Z,37.53
2023-05-12T17:45:19.312Z,38.34
2023-05-12T17:47:48.168Z,37.90
2023-05-12T17:50:15.429Z,38.37
2023-05-12T17:52:43.608Z,38.56
2023-05-12T17:55:10.473Z,39.24
2023-05-12T17:57:38.228Z,38.65
2023-05-12T18:00:10.678Z,39.94
2023-05-12T18:02:38.791Z,40.75
2023-05-12T18:05:06.679Z,40.77
2023-05-12T18:07:34.045Z,40.43
2023-05-12T18:10:01.192Z,41.16
2023-05-12T18:12:28.389Z,41.12
2023-05-12T18:14:55.513Z,41.46
2023-05-12T18:17:22.754Z,42.38
2023-05-12T18:19:50.242Z,41.80
2023-05-12T18:22:18.565Z,41.85
2023-05-12T18:24:45.844Z,41.70
2023-05-12T18:27:13.285Z,41.77
2023-05-12T18:29:40.414Z,42.23
2023-05-12T18:32:07.293Z,42.40
2023-05-12T18:34:34.972Z,42.44
2023-05-12T18:37:02.258Z,42.90
2023-05-12T18:39:29.188Z,43.31
2023-05-12T18:41:56.310Z,44.25
2023-05-12T18:44:23.493Z,43.89
2023-05-12T18:46:51.047Z,44.50
2023-05-12T18:49:18.276Z,44.74
2023-05-12T18:51:45.222Z,45.45
2023-05-12T18:54:12.323Z,45.17
2023-05-12T18:56:39.168Z,46.54
2023-05-12T18:59:06.214Z,46.80
2023-05-12T19:01:34.037Z,46.66
2023-05-12T19:04:01.048Z,47.78
2023-05-12T19:06:28.294Z,48.40
2023-05-12T19:08:55.222Z,48.91
2023-05-12T19:11:22.493Z,48.76
2023-05-12T19:13:51.085Z,48.75
2023-05-12T19:16:18.427Z,48.09
2023-05-12T19:18:46.247Z,49.34
2023-05-12T19:21:13.680Z,48.24
2023-05-12T19:23:40.819Z,48.45
2023-05-12T19:26:09.244Z,49.28
2023-05-12T19:28:36.594Z,49.33
2023-05-12T19:31:03.731Z,49.59
2023-05-12T19:33:32.288Z,48.90
2023-05-12T19:35:59.565Z,48.79
2023-05-12T19:38:26.501Z,48.90
2023-05-12T19:40:53.492Z,49.60
2023-05-12T19:43:20.518Z,50.12
2023-05-12T19:45:47.811Z,51.33
2023-05-12T19:48:15.285Z,50.66
2023-05-12T19:50:42.206Z,50.75
2023-05-12T19:53:09.264Z,51.59
2023-05-12T19:55:36.772Z,51.59
2023-05-12T19:58:03.693Z,51.85
2023-05-12T20:00:30.714Z,51.64
2023-05-12T20:02:57.852Z,51.82
2023-05-12T20:05:25.490Z,52.51
2023-05-12T20:07:52.484Z,52.74
2023-05-12T20:10:19.589Z,53.71
2023-05-12T20:12:46.562Z,54.05
2023-05-12T20:15:13.722Z,54.80
2023-05-12T20:17:40.884Z,54.59
2023-05-12T20:20:08.524Z,55.18
2023-05-12T20:22:35.608Z,55.53
2023-05-12T20:25:04.697Z,55.33
2023-05-12T20:27:32.940Z,56.76
2023-05-12T20:30:00.238Z,56.37
2023-05-12T20:32:27.300Z,56.47
2023-05-12T20:34:54.330Z,57.26
2023-05-12T20:37:21.329Z,56.47
2023-05-12T20:39:48.422Z,56.44
2023-05-12T20:42:15.285Z,57.64
2023-05-12T20:44:42.804Z,58.56
2023-05-12T20:47:10.472Z,58.88
2023-05-12T20:49:37.450Z,59.07
2023-05-12T20:52:05.113Z,59.60
2023-05-12T20:54:32.296Z,59.74
2023-05-12T20:56:59.464Z,58.85
2023-05-12T20:59:26.299Z,59.02
2023-05-12T21:01:53.370Z,59.49
2023-05-12T21:04:20.506Z,60.13
2023-05-12T21:06:47.581Z,60.23
2023-05-12T21:09:14.502Z,60.20
2023-05-12T21:11:41.815Z,60.57
2023-05-12T21:14:09.068Z,60.86
2023-05-12T21:16:36.469Z,61.18
2023-05-12T21:19:03.459Z,61.10
2023-05-12T21:21:30.296Z,60.97
2023-05-12T21:23:57.194Z,62.16
2023-05-12T21:26:23.984Z,62.08
2023-05-12T21:28:51.013Z,62.39
2023-05-12T21:31:18.162Z,62.52
2023-05-12T21:33:45.193Z,61.97
2023-05-12T21:36:12.331Z,62.62
2023-05-12T21:38:39.144Z,62.61
2023-05-12T21:41:06.262Z,62.04
2023-05-12T21:43:32.973Z,63.70
2023-05-12T21:46:04.316Z,63.71
2023-05-12T21:48:32.455Z,63.47
2023-05-12T21:51:01.045Z,64.07
2023-05-12T21:53:28.877Z,64.22
2023-05-12T21:55:56.007Z,64.46
2023-05-12T21:58:23.859Z,64.83
2023-05-12T22:00:54.046Z,64.40
2023-05-12T22:03:22.159Z,65.49
2023-05-12T22:05:49.188Z,64.85
2023-05-12T22:08:16.785Z,64.68
2023-05-12T22:10:43.764Z,65.35
2023-05-12T22:13:10.641Z,65.74
2023-05-12T22:15:37.512Z,64.76
2023-05-12T22:18:04.608Z,64.82
2023-05-12T22:20:31.707Z,65.56
2023-05-12T22:22:58.734Z,64.34
2023-05-12T22:25:25.934Z,65.27
2023-05-12T22:27:52.892Z,66.13
2023-05-12T22:30:20.648Z,65.98
2023-05-12T22:32:48.124Z,66.41
2023-05-12T22:35:15.251Z,67.04
2023-05-12T22:37:42.414Z,66.78
2023-05-12T22:40:09.864Z,67.03
2023-05-12T22:42:36.849Z,66.20
2023-05-12T22:45:05.032Z,66.82
2023-05-12T22:47:32.554Z,67.08
2023-05-12T22:49:59.965Z,67.62
2023-05-12T22:52:27.385Z,66.95
2023-05-12T22:54:55.318Z,66.25
2023-05-12T22:57:22.497Z,67.72
2023-05-12T22:59:49.473Z,66.71
2023-05-12T23:02:16.629Z,67.35
2023-05-12T23:04:44.229Z,67.21
2023-05-12T23:07:11.178Z,67.54
2023-05-12T23:09:38.283Z,67.98
2023-05-12T23:12:05.941Z,68.34
2023-05-12T23:14:33.012Z,69.09
2023-05-12T23:17:00.227Z,69.12
2023-05-12T23:19:27.199Z,68.91
2023-05-12T23:21:54.259Z,69.60
2023-05-12T23:24:21.952Z,69.98
2023-05-12T23:26:49.703Z,70.57
2023-05-12T23:29:16.912Z,70.15
2023-05-12T23:31:43.840Z,70.84
2023-05-12T23:34:10.784Z,71.08
2023-05-12T23:36:37.772Z,71.79
2023-05-12T23:39:04.744Z,71.39
2023-05-12T23:41:32.073Z,71.78
2023-05-12T23:43:59.155Z,71.72
2023-05-12T23:46:26.276Z,72.60
2023-05-12T23:48:56.512Z,72.51
2023-05-12T23:51:24.192Z,72.81
2023-05-12T23:53:52.125Z,72.97
2023-05-12T23:56:18.872Z,72.62
2023-05-12T23:58:47.193Z,72.99
